createdAt,value
2018-07-13T00:00:27.624Z,65.26
2018-07-13T00:00:58.806Z,64.87
2018-07-13T00:01:29.986Z,65.43
2018-07-13T00:02:01.199Z,64.93
2018-07-13T00:02:32.389Z,65.73
2018-07-13T00:03:03.579Z,64.86
2018-07-13T00:03:34.757Z,65.12
2018-07-13T00:04:05.982Z,66.00
2018-07-13T00:04:37.202Z,65.31
2018-07-13T00:05:08.387Z,65.50
2018-07-13T00:05:39.572Z,65.46
2018-07-13T00:06:10.750Z,66.20
2018-07-13T00:06:41.925Z,65.61
2018-07-13T00:07:13.093Z,66.86
2018-07-13T00:07:44.316Z,66.86
2018-07-13T00:08:15.553Z,66.41
2018-07-13T00:08:46.736Z,66.72
2018-07-13T00:09:17.965Z,66.56
2018-07-13T00:09:49.250Z,67.20
2018-07-13T00:10:20.438Z,67.32
2018-07-13T00:10:51.618Z,67.70
2018-07-13T00:11:22.788Z,67.10
2018-07-13T00:11:53.965Z,67.23
2018-07-13T00:12:25.137Z,67.59
2018-07-13T00:12:56.366Z,67.57
2018-07-13T00:13:27.556Z,67.89
2018-07-13T00:13:58.792Z,67.83
2018-07-13T00:14:30.032Z,68.10
2018-07-13T00:15:01.281Z,68.45
2018-07-13T00:15:32.506Z,68.59
2018-07-13T00:16:03.688Z,68.63
2018-07-13T00:16:34.856Z,68.95
2018-07-13T00:17:06.093Z,68.76
2018-07-13T00:17:37.334Z,69.28
2018-07-13T00:18:08.528Z,68.88
2018-07-13T00:18:39.747Z,69.63
2018-07-13T00:19:10.981Z,69.49
2018-07-13T00:19:43.278Z,68.85
2018-07-13T00:20:14.466Z,68.77
2018-07-13T00:20:45.710Z,69.43
2018-07-13T00:21:16.885Z,69.11
2018-07-13T00:21:48.057Z,69.29
2018-07-13T00:22:19.268Z,69.96
2018-07-13T00:22:50.472Z,69.88
2018-07-13T00:23:21.656Z,69.93
2018-07-13T00:23:52.837Z,69.67
2018-07-13T00:24:24.050Z,69.57
2018-07-13T00:24:55.246Z,69.75
2018-07-13T00:25:26.436Z,69.80
2018-07-13T00:25:57.612Z,70.16
2018-07-13T00:26:28.785Z,70.07
2018-07-13T00:27:00.013Z,70.46
2018-07-13T00:27:31.266Z,69.89
2018-07-13T00:28:02.537Z,70.08
2018-07-13T00:28:33.791Z,70.24
2018-07-13T00:29:05.055Z,70.87
2018-07-13T00:29:36.329Z,70.60
2018-07-13T00:30:07.572Z,71.34
2018-07-13T00:30:38.772Z,70.83
2018-07-13T00:31:10.015Z,70.96
2018-07-13T00:31:41.265Z,71.62
2018-07-13T00:32:12.500Z,71.52
2018-07-13T00:32:43.757Z,71.32
2018-07-13T00:33:14.944Z,71.34
2018-07-13T00:33:46.142Z,70.51
2018-07-13T00:34:17.318Z,71.18
2018-07-13T00:34:48.545Z,71.03
2018-07-13T00:35:19.765Z,70.50
2018-07-13T00:35:50.944Z,70.34
2018-07-13T00:36:22.181Z,70.89
2018-07-13T00:36:53.370Z,70.40
2018-07-13T00:37:24.539Z,70.84
2018-07-13T00:37:55.724Z,70.67
2018-07-13T00:38:26.942Z,70.83
2018-07-13T00:38:58.121Z,70.14
2018-07-13T00:39:29.350Z,70.31
2018-07-13T00:40:00.632Z,70.97
2018-07-13T00:40:31.820Z,70.96
2018-07-13T00:41:02.996Z,70.61
2018-07-13T00:41:34.176Z,70.59
2018-07-13T00:42:05.413Z,70.70
2018-07-13T00:42:36.620Z,71.46
2018-07-13T00:43:07.796Z,71.66
2018-07-13T00:43:39.516Z,71.29
2018-07-13T00:44:10.774Z,71.69
2018-07-13T00:44:41.989Z,71.90
2018-07-13T00:45:13.226Z,71.14
2018-07-13T00:45:44.392Z,71.88
2018-07-13T00:46:15.618Z,71.89
2018-07-13T00:46:46.861Z,72.01
2018-07-13T00:47:18.048Z,71.64
2018-07-13T00:47:49.224Z,71.66
2018-07-13T00:48:20.464Z,72.04
2018-07-13T00:48:51.649Z,72.11
2018-07-13T00:49:23.613Z,71.37
2018-07-13T00:49:54.807Z,72.21
2018-07-13T00:50:26.031Z,71.45
2018-07-13T00:50:57.256Z,72.15
2018-07-13T00:51:28.428Z,71.33
2018-07-13T00:51:59.592Z,71.30
2018-07-13T00:52:30.786Z,72.49
2018-07-13T00:53:02.023Z,72.36
2018-07-13T00:53:33.225Z,71.56
2018-07-13T00:54:04.446Z,72.47
2018-07-13T00:54:35.624Z,72.17
2018-07-13T00:55:06.856Z,71.84
2018-07-13T00:55:38.017Z,72.68
2018-07-13T00:56:09.240Z,72.52
2018-07-13T00:56:40.419Z,72.82
2018-07-13T00:57:11.604Z,73.22
2018-07-13T00:57:42.861Z,72.84
2018-07-13T00:58:14.044Z,73.65
2018-07-13T00:58:45.208Z,73.58
2018-07-13T00:59:16.403Z,72.87
2018-07-13T00:59:47.583Z,73.22
2018-07-13T01:00:18.805Z,72.89
2018-07-13T01:00:50.010Z,73.39
2018-07-13T01:01:21.192Z,73.15
2018-07-13T01:01:52.421Z,73.82
2018-07-13T01:02:23.604Z,73.23
2018-07-13T01:02:54.861Z,73.74
2018-07-13T01:03:26.093Z,74.08
2018-07-13T01:03:57.338Z,73.32
2018-07-13T01:04:28.531Z,73.95
2018-07-13T01:04:59.716Z,73.86
2018-07-13T01:05:30.942Z,73.17
2018-07-13T01:06:02.168Z,73.11
2018-07-13T01:06:33.345Z,73.04
2018-07-13T01:07:04.541Z,73.44
2018-07-13T01:07:35.769Z,72.78
2018-07-13T01:08:07.020Z,73.31
2018-07-13T01:08:38.210Z,73.44
2018-07-13T01:09:09.382Z,72.99
2018-07-13T01:09:41.543Z,72.61
2018-07-13T01:10:12.733Z,72.45
2018-07-13T01:10:43.916Z,72.83
2018-07-13T01:11:15.138Z,72.96
2018-07-13T01:11:46.317Z,73.27
2018-07-13T01:12:17.558Z,72.36
2018-07-13T01:12:48.742Z,72.71
2018-07-13T01:13:19.974Z,72.58
2018-07-13T01:13:51.210Z,72.46
2018-07-13T01:14:22.392Z,72.32
2018-07-13T01:14:53.564Z,72.45
2018-07-13T01:15:24.786Z,72.65
2018-07-13T01:15:55.972Z,72.44
2018-07-13T01:16:27.255Z,72.35
2018-07-13T01:16:58.464Z,72.97
2018-07-13T01:17:29.698Z,73.29
2018-07-13T01:18:00.879Z,72.93
2018-07-13T01:18:32.532Z,73.62
2018-07-13T01:19:03.763Z,73.18
2018-07-13T01:19:35.129Z,73.76
2018-07-13T01:20:06.364Z,73.85
2018-07-13T01:20:37.597Z,73.36
2018-07-13T01:21:08.823Z,73.97
2018-07-13T01:21:40.044Z,73.63
2018-07-13T01:22:11.225Z,73.50
2018-07-13T01:22:42.403Z,73.51
2018-07-13T01:23:13.590Z,74.14
2018-07-13T01:23:44.765Z,73.79
2018-07-13T01:24:15.932Z,73.63
2018-07-13T01:24:47.153Z,73.49
2018-07-13T01:25:18.325Z,73.29
2018-07-13T01:25:49.553Z,73.73
2018-07-13T01:26:20.741Z,73.64
2018-07-13T01:26:51.966Z,73.60
2018-07-13T01:27:23.152Z,73.20
2018-07-13T01:27:54.377Z,73.10
2018-07-13T01:28:25.568Z,73.05
2018-07-13T01:28:56.750Z,73.58
2018-07-13T01:29:27.982Z,73.40
2018-07-13T01:29:59.256Z,72.85
2018-07-13T01:30:30.440Z,73.17
2018-07-13T01:31:01.673Z,72.54
2018-07-13T01:31:32.900Z,73.00
2018-07-13T01:32:04.084Z,71.89
2018-07-13T01:32:35.314Z,72.51
2018-07-13T01:33:06.541Z,72.36
2018-07-13T01:33:37.721Z,72.96
2018-07-13T01:34:08.891Z,72.44
2018-07-13T01:34:40.057Z,72.43
2018-07-13T01:35:11.275Z,72.83
2018-07-13T01:35:42.464Z,72.65
2018-07-13T01:36:13.648Z,72.78
2018-07-13T01:36:44.833Z,73.40
2018-07-13T01:37:16.045Z,72.97
2018-07-13T01:37:47.210Z,73.16
2018-07-13T01:38:18.433Z,72.88
2018-07-13T01:38:49.613Z,73.19
2018-07-13T01:39:20.836Z,72.98
2018-07-13T01:39:52.049Z,73.14
2018-07-13T01:40:23.223Z,73.31
2018-07-13T01:40:54.389Z,73.17
2018-07-13T01:41:25.612Z,73.02
2018-07-13T01:41:56.783Z,72.90
2018-07-13T01:42:27.955Z,73.14
2018-07-13T01:42:59.173Z,73.34
2018-07-13T01:43:30.352Z,73.11
2018-07-13T01:44:01.581Z,73.08
2018-07-13T01:44:32.757Z,72.41
2018-07-13T01:45:03.973Z,72.76
2018-07-13T01:45:35.161Z,72.56
2018-07-13T01:46:06.389Z,72.02
2018-07-13T01:46:37.629Z,72.46
2018-07-13T01:47:08.804Z,72.57
2018-07-13T01:47:39.987Z,72.00
2018-07-13T01:48:11.198Z,72.10
2018-07-13T01:48:42.368Z,72.74
2018-07-13T01:49:13.536Z,72.26
2018-07-13T01:49:44.704Z,72.62
2018-07-13T01:50:17.055Z,72.78
2018-07-13T01:50:48.290Z,72.32
2018-07-13T01:51:19.472Z,71.61
2018-07-13T01:51:50.697Z,72.21
2018-07-13T01:52:21.864Z,72.17
2018-07-13T01:52:53.032Z,71.96
2018-07-13T01:53:24.202Z,72.02
2018-07-13T01:53:55.370Z,71.56
2018-07-13T01:54:26.601Z,72.00
2018-07-13T01:54:57.779Z,72.02
2018-07-13T01:55:29.017Z,72.00
2018-07-13T01:56:00.197Z,71.82
2018-07-13T01:56:31.388Z,71.47
2018-07-13T01:57:02.658Z,71.59
2018-07-13T01:57:33.843Z,71.83
2018-07-13T01:58:05.113Z,71.19
2018-07-13T01:58:36.298Z,71.04
2018-07-13T01:59:07.468Z,70.96
2018-07-13T01:59:38.721Z,71.75
2018-07-13T02:00:09.929Z,71.15
2018-07-13T02:00:41.114Z,71.41
2018-07-13T02:01:12.370Z,71.66
2018-07-13T02:01:43.560Z,71.89
2018-07-13T02:02:14.735Z,71.71
2018-07-13T02:02:45.905Z,72.31
2018-07-13T02:03:17.067Z,71.61
2018-07-13T02:03:48.240Z,72.05
2018-07-13T02:04:19.418Z,72.11
2018-07-13T02:04:50.650Z,71.68
2018-07-13T02:05:21.869Z,72.71
2018-07-13T02:05:53.101Z,72.24
2018-07-13T02:06:24.330Z,72.26
2018-07-13T02:06:55.566Z,73.06
2018-07-13T02:07:26.811Z,72.17
2018-07-13T02:07:58.396Z,72.32
2018-07-13T02:08:29.588Z,72.55
2018-07-13T02:09:00.766Z,73.10
2018-07-13T02:09:31.932Z,72.08
2018-07-13T02:10:04.670Z,71.93
2018-07-13T02:10:35.889Z,71.86
2018-07-13T02:11:07.070Z,72.24
2018-07-13T02:11:38.236Z,71.43
2018-07-13T02:12:09.709Z,70.95
2018-07-13T02:12:40.893Z,71.07
2018-07-13T02:13:12.068Z,70.93
2018-07-13T02:13:43.282Z,71.26
2018-07-13T02:14:14.450Z,71.03
2018-07-13T02:14:45.624Z,71.78
2018-07-13T02:15:16.840Z,71.35
2018-07-13T02:15:48.097Z,71.00
2018-07-13T02:16:19.286Z,71.21
2018-07-13T02:16:50.468Z,72.01
2018-07-13T02:17:21.694Z,72.07
2018-07-13T02:17:52.970Z,72.23
2018-07-13T02:18:24.144Z,71.68
2018-07-13T02:19:32.006Z,72.54
2018-07-13T02:20:03.277Z,72.63
2018-07-13T02:20:34.461Z,72.98
2018-07-13T02:21:05.673Z,73.11
2018-07-13T02:21:36.999Z,72.51
2018-07-13T02:22:08.184Z,72.92
2018-07-13T02:22:39.410Z,72.70
2018-07-13T02:23:10.589Z,72.85
2018-07-13T02:23:41.762Z,72.80
2018-07-13T02:24:12.998Z,73.11
2018-07-13T02:24:44.182Z,72.70
2018-07-13T02:25:15.384Z,72.48
2018-07-13T02:25:46.565Z,71.97
2018-07-13T02:26:17.742Z,72.81
2018-07-13T02:26:48.926Z,72.15
2018-07-13T02:27:20.102Z,72.55
2018-07-13T02:27:51.280Z,71.96
2018-07-13T02:28:22.453Z,72.17
2018-07-13T02:28:53.726Z,72.49
2018-07-13T02:29:24.915Z,71.85
2018-07-13T02:29:56.092Z,71.70
2018-07-13T02:30:27.262Z,72.37
2018-07-13T02:30:58.445Z,71.49
2018-07-13T02:31:29.713Z,72.20
2018-07-13T02:32:00.914Z,71.72
2018-07-13T02:32:32.097Z,72.41
2018-07-13T02:33:03.272Z,72.31
2018-07-13T02:33:34.504Z,71.68
2018-07-13T02:34:05.738Z,71.63
2018-07-13T02:34:36.965Z,71.74
2018-07-13T02:35:08.153Z,71.95
2018-07-13T02:35:39.342Z,72.32
2018-07-13T02:36:10.548Z,72.05
2018-07-13T02:36:41.767Z,72.13
2018-07-13T02:37:12.941Z,72.33
2018-07-13T02:37:44.124Z,72.56
2018-07-13T02:38:15.298Z,71.92
2018-07-13T02:38:46.541Z,72.59
2018-07-13T02:39:17.732Z,72.08
2018-07-13T02:39:48.904Z,72.57
2018-07-13T02:40:20.081Z,72.18
2018-07-13T02:40:51.313Z,72.20
2018-07-13T02:41:22.542Z,71.60
2018-07-13T02:41:53.725Z,71.61
2018-07-13T02:42:24.942Z,71.42
2018-07-13T02:42:56.126Z,71.34
2018-07-13T02:43:27.358Z,71.31
2018-07-13T02:43:58.621Z,71.74
2018-07-13T02:44:29.809Z,71.82
2018-07-13T02:45:00.996Z,71.77
2018-07-13T02:45:32.191Z,71.58
2018-07-13T02:46:03.413Z,70.92
2018-07-13T02:46:34.596Z,71.74
2018-07-13T02:47:05.765Z,70.81
2018-07-13T02:47:36.945Z,71.03
2018-07-13T02:48:08.116Z,70.85
2018-07-13T02:48:39.333Z,71.29
2018-07-13T02:49:10.500Z,71.03
2018-07-13T02:49:41.730Z,70.84
2018-07-13T02:50:12.965Z,70.95
2018-07-13T02:50:44.194Z,70.82
2018-07-13T02:51:15.452Z,71.25
2018-07-13T02:51:46.580Z,71.50
2018-07-13T02:52:17.797Z,70.83
2018-07-13T02:52:48.968Z,70.94
2018-07-13T02:53:20.157Z,70.37
2018-07-13T02:53:51.390Z,70.06
2018-07-13T02:54:22.590Z,71.08
2018-07-13T02:54:53.801Z,70.94
2018-07-13T02:55:25.053Z,70.50
2018-07-13T02:55:56.292Z,71.79
2018-07-13T02:56:28.500Z,70.93
2018-07-13T02:56:59.765Z,70.98
2018-07-13T02:57:31.002Z,71.35
2018-07-13T02:58:02.246Z,71.38
2018-07-13T02:58:33.441Z,70.68
2018-07-13T02:59:04.694Z,70.83
2018-07-13T02:59:35.881Z,71.50
2018-07-13T03:00:07.113Z,70.65
2018-07-13T03:00:38.294Z,70.87
2018-07-13T03:01:10.418Z,70.25
2018-07-13T03:01:41.692Z,71.38
2018-07-13T03:02:12.985Z,71.32
2018-07-13T03:02:44.170Z,70.65
2018-07-13T03:03:15.336Z,70.95
2018-07-13T03:03:46.509Z,70.92
2018-07-13T03:04:17.729Z,71.13
2018-07-13T03:04:48.912Z,70.92
2018-07-13T03:05:20.079Z,71.36
2018-07-13T03:05:51.322Z,71.40
2018-07-13T03:06:22.557Z,70.76
2018-07-13T03:06:53.781Z,70.73
2018-07-13T03:07:25.004Z,71.00
2018-07-13T03:07:56.177Z,71.83
2018-07-13T03:08:27.351Z,70.86
2018-07-13T03:08:58.577Z,71.52
2018-07-13T03:09:29.872Z,71.28
2018-07-13T03:10:01.072Z,70.94
2018-07-13T03:10:32.248Z,70.76
2018-07-13T03:11:03.425Z,70.80
2018-07-13T03:11:34.611Z,71.37
2018-07-13T03:12:05.785Z,71.19
2018-07-13T03:12:37.015Z,70.44
2018-07-13T03:13:08.226Z,70.51
2018-07-13T03:13:39.454Z,70.35
2018-07-13T03:14:10.774Z,70.13
2018-07-13T03:14:41.955Z,70.22
2018-07-13T03:15:13.136Z,69.90
2018-07-13T03:15:44.378Z,70.52
2018-07-13T03:16:15.555Z,70.21
2018-07-13T03:16:46.724Z,69.57
2018-07-13T03:17:17.961Z,69.06
2018-07-13T03:17:49.144Z,68.79
2018-07-13T03:18:20.364Z,68.25
2018-07-13T03:18:51.544Z,67.83
2018-07-13T03:19:22.813Z,68.30
2018-07-13T03:19:53.990Z,67.58
2018-07-13T03:20:25.225Z,68.43
2018-07-13T03:20:56.454Z,67.65
2018-07-13T03:21:27.689Z,67.69
2018-07-13T03:21:58.877Z,66.44
2018-07-13T03:22:30.049Z,67.08
2018-07-13T03:23:01.238Z,66.93
2018-07-13T03:23:32.419Z,66.19
2018-07-13T03:24:03.648Z,66.16
2018-07-13T03:24:34.939Z,66.07
2018-07-13T03:25:06.117Z,65.63
2018-07-13T03:25:37.297Z,65.45
2018-07-13T03:26:08.569Z,65.25
2018-07-13T03:26:39.805Z,65.76
2018-07-13T03:27:10.981Z,65.57
2018-07-13T03:27:42.157Z,64.52
2018-07-13T03:28:13.328Z,64.58
2018-07-13T03:28:44.905Z,64.30
2018-07-13T03:29:16.116Z,64.22
2018-07-13T03:29:47.356Z,64.55
2018-07-13T03:30:18.540Z,64.80
2018-07-13T03:30:49.737Z,64.83
2018-07-13T03:31:20.966Z,64.09
2018-07-13T03:31:52.211Z,64.41
2018-07-13T03:32:23.408Z,64.00
2018-07-13T03:32:54.621Z,63.50
2018-07-13T03:33:25.801Z,63.38
2018-07-13T03:33:56.994Z,63.60
2018-07-13T03:34:28.218Z,63.66
2018-07-13T03:34:59.444Z,62.67
2018-07-13T03:35:30.673Z,62.17
2018-07-13T03:36:01.914Z,62.30
2018-07-13T03:36:33.092Z,61.84
2018-07-13T03:37:04.328Z,61.75
2018-07-13T03:37:35.561Z,62.24
2018-07-13T03:38:06.756Z,62.12
2018-07-13T03:38:37.936Z,61.24
2018-07-13T03:39:09.111Z,61.50
2018-07-13T03:39:40.613Z,60.69
2018-07-13T03:40:11.837Z,60.72
2018-07-13T03:40:43.024Z,60.61
2018-07-13T03:41:14.202Z,60.69
2018-07-13T03:41:45.441Z,60.22
2018-07-13T03:42:16.625Z,59.53
2018-07-13T03:42:47.816Z,59.23
2018-07-13T03:43:19.006Z,59.74
2018-07-13T03:43:50.205Z,59.12
2018-07-13T03:44:21.392Z,59.45
2018-07-13T03:44:52.565Z,59.19
2018-07-13T03:45:23.790Z,58.79
2018-07-13T03:45:54.969Z,58.68
2018-07-13T03:46:28.550Z,58.71
2018-07-13T03:47:00.145Z,58.21
2018-07-13T03:47:31.329Z,57.91
2018-07-13T03:48:03.778Z,56.12
2018-07-13T03:48:35.012Z,57.07
2018-07-13T03:49:06.204Z,56.86
2018-07-13T03:49:37.385Z,56.44
2018-07-13T03:50:08.612Z,56.18
2018-07-13T03:50:39.847Z,55.51
2018-07-13T03:51:11.792Z,55.65
2018-07-13T03:51:43.035Z,56.22
2018-07-13T03:52:14.216Z,55.87
2018-07-13T03:52:45.392Z,55.64
2018-07-13T03:53:16.573Z,55.15
2018-07-13T03:53:47.810Z,55.19
2018-07-13T03:54:19.089Z,53.89
2018-07-13T03:54:51.157Z,53.46
2018-07-13T03:55:22.388Z,53.92
2018-07-13T03:55:53.633Z,53.91
2018-07-13T03:56:24.812Z,53.53
2018-07-13T03:56:56.125Z,53.43
2018-07-13T03:57:27.368Z,53.76
2018-07-13T03:57:58.609Z,53.22
2018-07-13T03:58:29.813Z,52.52
2018-07-13T03:59:01.040Z,51.76
2018-07-13T03:59:32.265Z,52.23
2018-07-13T04:00:03.503Z,52.30
2018-07-13T04:00:34.823Z,51.51
2018-07-13T04:01:06.037Z,51.00
2018-07-13T04:01:37.269Z,51.60
2018-07-13T04:02:08.505Z,51.54
2018-07-13T04:02:39.692Z,51.83
2018-07-13T04:03:10.938Z,52.04
2018-07-13T04:03:42.172Z,52.71
2018-07-13T04:04:13.383Z,53.26
2018-07-13T04:04:44.606Z,53.64
2018-07-13T04:05:15.773Z,54.04
2018-07-13T04:05:46.996Z,54.26
2018-07-13T04:06:18.190Z,54.63
2018-07-13T04:06:49.422Z,55.54
2018-07-13T04:07:20.614Z,56.51
2018-07-13T04:07:51.792Z,56.49
2018-07-13T04:08:22.966Z,56.89
2018-07-13T04:08:54.155Z,57.21
2018-07-13T04:09:25.383Z,56.76
2018-07-13T04:09:56.636Z,56.80
2018-07-13T04:10:27.877Z,56.40
2018-07-13T04:10:59.111Z,55.76
2018-07-13T04:11:30.310Z,55.38
2018-07-13T04:12:01.540Z,54.75
2018-07-13T04:12:32.744Z,54.52
2018-07-13T04:13:03.924Z,53.12
2018-07-13T04:13:35.112Z,52.55
2018-07-13T04:14:06.341Z,52.23
2018-07-13T04:14:37.586Z,51.45
2018-07-13T04:15:08.828Z,51.40
2018-07-13T04:15:40.033Z,51.33
2018-07-13T04:16:11.261Z,51.55
2018-07-13T04:16:42.453Z,51.76
2018-07-13T04:17:13.725Z,52.20
2018-07-13T04:17:44.974Z,52.45
2018-07-13T04:18:16.538Z,52.80
2018-07-13T04:18:47.718Z,53.47
2018-07-13T04:19:18.916Z,53.68
2018-07-13T04:19:50.106Z,53.61
2018-07-13T04:20:21.280Z,53.35
2018-07-13T04:20:52.473Z,52.96
2018-07-13T04:21:23.709Z,52.40
2018-07-13T04:21:54.982Z,52.23
2018-07-13T04:22:26.174Z,51.78
2018-07-13T04:22:57.352Z,51.30
2018-07-13T04:23:28.580Z,50.86
2018-07-13T04:23:59.825Z,51.16
2018-07-13T04:24:31.069Z,51.58
2018-07-13T04:25:02.332Z,51.86
2018-07-13T04:25:33.556Z,51.83
2018-07-13T04:26:04.788Z,52.08
2018-07-13T04:26:36.022Z,52.78
2018-07-13T04:27:07.386Z,52.59
2018-07-13T04:27:38.572Z,53.14
2018-07-13T04:28:09.750Z,52.70
2018-07-13T04:28:41.053Z,52.53
2018-07-13T04:29:13.181Z,51.86
2018-07-13T04:29:44.376Z,51.40
2018-07-13T04:30:16.204Z,50.85
2018-07-13T04:30:47.389Z,50.70
2018-07-13T04:31:18.577Z,50.66
2018-07-13T04:31:49.760Z,51.00
2018-07-13T04:32:21.033Z,51.20
2018-07-13T04:32:52.214Z,51.41
2018-07-13T04:33:24.200Z,51.33
2018-07-13T04:33:55.393Z,51.79
2018-07-13T04:34:26.570Z,52.07
2018-07-13T04:34:57.813Z,52.15
2018-07-13T04:35:29.090Z,52.30
2018-07-13T04:36:00.301Z,52.68
2018-07-13T04:36:31.489Z,52.68
2018-07-13T04:37:03.106Z,53.05
2018-07-13T04:37:34.955Z,53.47
2018-07-13T04:38:06.148Z,53.38
2018-07-13T04:38:37.409Z,53.21
2018-07-13T04:39:08.612Z,51.97
2018-07-13T04:39:39.849Z,51.42
2018-07-13T04:40:11.047Z,50.85
2018-07-13T04:40:42.402Z,50.17
2018-07-13T04:41:14.477Z,48.77
2018-07-13T04:41:45.657Z,48.15
2018-07-13T04:42:16.837Z,47.74
2018-07-13T04:42:48.020Z,47.36
2018-07-13T04:43:19.196Z,47.51
2018-07-13T04:43:50.424Z,46.84
2018-07-13T04:44:21.627Z,46.68
2018-07-13T04:44:53.645Z,46.43
2018-07-13T04:45:24.826Z,47.08
2018-07-13T04:45:56.035Z,47.53
2018-07-13T04:46:27.269Z,48.81
2018-07-13T04:46:58.456Z,49.55
2018-07-13T04:47:29.809Z,49.77
2018-07-13T04:48:01.011Z,50.41
2018-07-13T04:48:34.207Z,51.13
2018-07-13T04:49:03.449Z,51.25
2018-07-13T04:49:34.686Z,51.43
2018-07-13T04:50:05.923Z,51.96
2018-07-13T04:50:37.100Z,51.93
2018-07-13T04:51:08.301Z,51.90
2018-07-13T04:51:39.505Z,52.46
2018-07-13T04:52:10.799Z,52.90
2018-07-13T04:52:42.058Z,52.99
2018-07-13T04:53:13.270Z,52.68
2018-07-13T04:53:44.490Z,52.45
2018-07-13T04:54:16.496Z,52.59
2018-07-13T04:54:47.692Z,51.96
2018-07-13T04:55:19.680Z,51.50
2018-07-13T04:55:50.917Z,51.68
2018-07-13T04:56:22.100Z,51.22
2018-07-13T04:56:53.291Z,51.41
2018-07-13T04:57:24.529Z,51.36
2018-07-13T04:57:55.776Z,51.68
2018-07-13T04:58:27.549Z,51.81
2018-07-13T04:58:58.791Z,52.17
2018-07-13T04:59:30.092Z,52.22
2018-07-13T05:00:01.288Z,52.47
2018-07-13T05:00:32.520Z,51.92
2018-07-13T05:01:03.755Z,51.61
2018-07-13T05:01:35.593Z,51.03
2018-07-13T05:02:06.774Z,50.36
2018-07-13T05:02:37.960Z,50.28
2018-07-13T05:03:09.204Z,49.66
2018-07-13T05:03:40.399Z,48.95
2018-07-13T05:04:11.592Z,48.43
2018-07-13T05:04:42.858Z,47.68
2018-07-13T05:05:14.045Z,46.88
2018-07-13T05:05:45.249Z,47.09
2018-07-13T05:06:16.449Z,46.57
2018-07-13T05:06:47.632Z,46.83
2018-07-13T05:07:18.843Z,46.28
2018-07-13T05:07:50.072Z,46.27
2018-07-13T05:08:21.264Z,46.01
2018-07-13T05:08:52.494Z,44.96
2018-07-13T05:09:23.729Z,44.10
2018-07-13T05:09:54.974Z,43.60
2018-07-13T05:10:26.260Z,43.70
2018-07-13T05:10:57.484Z,42.61
2018-07-13T05:11:28.664Z,42.37
2018-07-13T05:11:59.832Z,42.36
2018-07-13T05:12:31.009Z,41.90
2018-07-13T05:13:02.216Z,41.25
2018-07-13T05:13:33.393Z,41.15
2018-07-13T05:14:04.572Z,41.08
2018-07-13T05:14:35.760Z,40.65
2018-07-13T05:15:06.991Z,40.48
2018-07-13T05:15:38.168Z,40.85
2018-07-13T05:16:09.341Z,40.28
2018-07-13T05:16:40.525Z,40.65
2018-07-13T05:17:11.697Z,40.05
2018-07-13T05:17:42.937Z,39.40
2018-07-13T05:18:14.128Z,39.71
2018-07-13T05:18:45.353Z,39.68
2018-07-13T05:19:16.541Z,39.35
2018-07-13T05:19:47.721Z,39.35
2018-07-13T05:20:18.936Z,39.37
2018-07-13T05:20:50.169Z,38.98
2018-07-13T05:21:21.473Z,38.46
2018-07-13T05:21:52.634Z,38.58
2018-07-13T05:22:23.814Z,38.88
2018-07-13T05:22:54.995Z,38.41
2018-07-13T05:23:26.192Z,38.51
2018-07-13T05:23:57.371Z,38.98
2018-07-13T05:24:28.601Z,39.05
2018-07-13T05:24:59.793Z,38.26
2018-07-13T05:25:31.025Z,38.82
2018-07-13T05:26:02.208Z,39.05
2018-07-13T05:26:33.392Z,38.18
2018-07-13T05:27:04.594Z,38.75
2018-07-13T05:27:35.789Z,37.61
2018-07-13T05:28:07.069Z,37.57
2018-07-13T05:28:38.260Z,37.00
2018-07-13T05:29:09.449Z,36.94
2018-07-13T05:29:40.628Z,36.48
2018-07-13T05:30:11.865Z,36.54
2018-07-13T05:30:43.080Z,36.61
2018-07-13T05:31:14.269Z,37.72
2018-07-13T05:31:45.534Z,37.11
2018-07-13T05:32:16.752Z,37.26
2018-07-13T05:32:47.944Z,38.43
2018-07-13T05:33:19.186Z,37.77
2018-07-13T05:33:50.420Z,38.22
2018-07-13T05:34:21.608Z,37.71
2018-07-13T05:34:52.800Z,38.27
2018-07-13T05:35:23.983Z,38.68
2018-07-13T05:35:55.217Z,39.10
2018-07-13T05:36:26.416Z,38.91
2018-07-13T05:36:57.658Z,38.96
2018-07-13T05:37:28.850Z,38.24
2018-07-13T05:38:00.043Z,38.83
2018-07-13T05:38:31.314Z,38.84
2018-07-13T05:39:02.517Z,39.13
2018-07-13T05:39:33.859Z,38.79
2018-07-13T05:40:05.056Z,39.09
2018-07-13T05:40:36.282Z,38.46
2018-07-13T05:41:08.090Z,38.64
2018-07-13T05:41:39.268Z,39.13
2018-07-13T05:42:10.452Z,38.95
2018-07-13T05:42:41.672Z,39.17
2018-07-13T05:43:12.888Z,38.53
2018-07-13T05:43:44.163Z,38.35
2018-07-13T05:44:15.371Z,38.47
2018-07-13T05:44:46.593Z,38.82
2018-07-13T05:45:17.776Z,39.98
2018-07-13T05:45:48.996Z,39.37
2018-07-13T05:46:20.187Z,39.63
2018-07-13T05:46:51.403Z,39.82
2018-07-13T05:47:22.641Z,40.32
2018-07-13T05:47:53.817Z,40.30
2018-07-13T05:48:24.997Z,41.39
2018-07-13T05:48:56.226Z,42.07
2018-07-13T05:49:32.334Z,42.02
2018-07-13T05:50:03.464Z,41.87
2018-07-13T05:50:34.626Z,41.71
2018-07-13T05:51:05.891Z,41.37
2018-07-13T05:51:37.111Z,42.17
2018-07-13T05:52:08.224Z,41.59
2018-07-13T05:52:39.405Z,41.39
2018-07-13T05:53:10.600Z,41.57
2018-07-13T05:53:41.831Z,41.91
2018-07-13T05:54:13.048Z,41.97
2018-07-13T05:54:44.449Z,41.85
2018-07-13T05:55:15.654Z,41.53
2018-07-13T05:55:46.906Z,41.69
2018-07-13T05:56:18.255Z,42.20
2018-07-13T05:56:49.429Z,41.61
2018-07-13T05:57:20.642Z,42.71
2018-07-13T05:57:51.873Z,42.27
2018-07-13T05:58:23.116Z,43.37
2018-07-13T05:58:54.332Z,42.81
2018-07-13T05:59:25.553Z,42.54
2018-07-13T05:59:56.777Z,42.11
2018-07-13T06:00:27.944Z,41.77
2018-07-13T06:00:59.154Z,43.06
2018-07-13T06:01:30.393Z,42.84
2018-07-13T06:02:01.613Z,41.76
2018-07-13T06:02:33.914Z,41.72
2018-07-13T06:03:05.996Z,42.24
2018-07-13T06:03:37.170Z,42.86
2018-07-13T06:04:08.393Z,42.76
2018-07-13T06:04:39.588Z,42.05
2018-07-13T06:05:10.793Z,41.61
2018-07-13T06:05:41.995Z,41.82
2018-07-13T06:06:13.328Z,41.78
2018-07-13T06:06:44.564Z,42.05
2018-07-13T06:07:15.759Z,41.36
2018-07-13T06:07:47.072Z,41.69
2018-07-13T06:08:18.297Z,42.25
2018-07-13T06:08:49.550Z,41.95
2018-07-13T06:09:20.725Z,41.95
2018-07-13T06:09:51.946Z,41.84
2018-07-13T06:10:23.190Z,41.86
2018-07-13T06:10:54.360Z,42.79
2018-07-13T06:11:25.540Z,42.06
2018-07-13T06:11:56.753Z,41.20
2018-07-13T06:12:28.101Z,41.67
2018-07-13T06:12:59.342Z,41.10
2018-07-13T06:13:30.590Z,41.25
2018-07-13T06:14:01.820Z,40.19
2018-07-13T06:14:33.065Z,42.19
2018-07-13T06:15:05.483Z,41.43
2018-07-13T06:15:36.671Z,42.07
2018-07-13T06:16:07.882Z,40.83
2018-07-13T06:16:39.184Z,41.44
2018-07-13T06:17:10.493Z,41.36
2018-07-13T06:17:41.670Z,40.64
2018-07-13T06:18:12.840Z,42.24
2018-07-13T06:18:44.026Z,41.42
2018-07-13T06:19:15.265Z,41.98
2018-07-13T06:19:46.493Z,42.24
2018-07-13T06:20:17.708Z,42.48
2018-07-13T06:20:48.957Z,41.30
2018-07-13T06:21:20.149Z,41.63
2018-07-13T06:21:51.369Z,42.48
2018-07-13T06:22:23.229Z,42.90
2018-07-13T06:22:54.404Z,42.97
2018-07-13T06:23:25.657Z,42.70
2018-07-13T06:23:56.908Z,42.00
2018-07-13T06:24:28.086Z,40.84
2018-07-13T06:24:59.276Z,41.26
2018-07-13T06:25:30.471Z,42.42
2018-07-13T06:26:01.748Z,41.82
2018-07-13T06:26:32.953Z,42.12
2018-07-13T06:27:04.141Z,40.43
2018-07-13T06:27:35.425Z,40.60
2018-07-13T06:28:06.612Z,41.30
2018-07-13T06:28:38.089Z,40.82
2018-07-13T06:29:09.436Z,41.94
2018-07-13T06:29:40.726Z,42.10
2018-07-13T06:30:11.983Z,40.95
2018-07-13T06:30:43.249Z,42.70
2018-07-13T06:31:14.438Z,41.73
2018-07-13T06:31:45.694Z,41.48
2018-07-13T06:32:17.834Z,41.31
2018-07-13T06:32:49.037Z,41.19
2018-07-13T06:33:20.221Z,41.01
2018-07-13T06:33:51.449Z,40.75
2018-07-13T06:34:22.679Z,41.56
2018-07-13T06:34:53.863Z,41.29
2018-07-13T06:35:25.106Z,41.27
2018-07-13T06:35:56.325Z,41.46
2018-07-13T06:36:27.510Z,41.26
2018-07-13T06:36:58.743Z,41.41
2018-07-13T06:37:29.938Z,41.39
2018-07-13T06:38:01.258Z,41.36
2018-07-13T06:38:32.486Z,41.51
2018-07-13T06:39:03.724Z,41.09
2018-07-13T06:39:35.801Z,41.55
2018-07-13T06:40:07.020Z,40.99
2018-07-13T06:40:38.245Z,41.41
2018-07-13T06:41:10.000Z,42.38
2018-07-13T06:42:17.905Z,41.08
2018-07-13T06:42:49.093Z,41.74
2018-07-13T06:43:20.277Z,41.72
2018-07-13T06:43:51.454Z,41.52